sensor_id;sensor_type;location;lat;lon;timestamp;pressure;altitude;pressure_sealevel;temperature
50206;BMP280;36098;48.390;10.856;2023-02-02T00:01:24;96467.53;;;22.38
50206;BMP280;36098;48.390;10.856;2023-02-02T00:03:50;96474.94;;;22.41
50206;BMP280;36098;48.390;10.856;2023-02-02T00:06:16;96462.53;;;22.36
50206;BMP280;36098;48.390;10.856;2023-02-02T00:08:42;96465.13;;;22.31
50206;BMP280;36098;48.390;10.856;2023-02-02T00:11:07;96459.03;;;22.26
50206;BMP280;36098;48.390;10.856;2023-02-02T00:13:32;96460.63;;;22.27
50206;BMP280;36098;48.390;10.856;2023-02-02T00:15:58;96459.56;;;22.28
50206;BMP280;36098;48.390;10.856;2023-02-02T00:18:23;96453.78;;;22.26
50206;BMP280;36098;48.390;10.856;2023-02-02T00:20:48;96441.69;;;22.25
50206;BMP280;36098;48.390;10.856;2023-02-02T00:23:14;96445.09;;;22.25
50206;BMP280;36098;48.390;10.856;2023-02-02T00:25:39;96449.53;;;22.20
50206;BMP280;36098;48.390;10.856;2023-02-02T00:28:05;96441.59;;;22.15
50206;BMP280;36098;48.390;10.856;2023-02-02T00:30:30;96444.00;;;22.16
50206;BMP280;36098;48.390;10.856;2023-02-02T00:32:55;96446.13;;;22.19
50206;BMP280;36098;48.390;10.856;2023-02-02T00:35:21;96438.44;;;22.13
50206;BMP280;36098;48.390;10.856;2023-02-02T00:37:46;96443.69;;;22.13
50206;BMP280;36098;48.390;10.856;2023-02-02T00:40:11;96438.94;;;22.10
50206;BMP280;36098;48.390;10.856;2023-02-02T00:42:36;96436.56;;;22.08
50206;BMP280;36098;48.390;10.856;2023-02-02T00:45:02;96453.38;;;22.07
50206;BMP280;36098;48.390;10.856;2023-02-02T00:47:43;96458.91;;;22.06
50206;BMP280;36098;48.390;10.856;2023-02-02T00:50:10;96465.25;;;22.10
50206;BMP280;36098;48.390;10.856;2023-02-02T00:52:35;96467.06;;;22.04
50206;BMP280;36098;48.390;10.856;2023-02-02T00:55:01;96464.69;;;22.03
50206;BMP280;36098;48.390;10.856;2023-02-02T00:57:26;96462.00;;;21.98
50206;BMP280;36098;48.390;10.856;2023-02-02T00:59:51;96475.22;;;22.03
50206;BMP280;36098;48.390;10.856;2023-02-02T01:02:16;96464.94;;;22.01
50206;BMP280;36098;48.390;10.856;2023-02-02T01:04:41;96463.31;;;21.95
50206;BMP280;36098;48.390;10.856;2023-02-02T01:07:06;96465.41;;;21.93
50206;BMP280;36098;48.390;10.856;2023-02-02T01:09:32;96463.06;;;21.97
50206;BMP280;36098;48.390;10.856;2023-02-02T01:11:57;96460.91;;;21.89
50206;BMP280;36098;48.390;10.856;2023-02-02T01:14:22;96447.75;;;21.89
50206;BMP280;36098;48.390;10.856;2023-02-02T01:16:47;96458.31;;;21.94
50206;BMP280;36098;48.390;10.856;2023-02-02T01:19:13;96453.56;;;21.91
50206;BMP280;36098;48.390;10.856;2023-02-02T01:21:38;96472.47;;;21.88
50206;BMP280;36098;48.390;10.856;2023-02-02T01:24:03;96451.94;;;21.85
50206;BMP280;36098;48.390;10.856;2023-02-02T01:26:28;96462.47;;;21.85
50206;BMP280;36098;48.390;10.856;2023-02-02T01:28:53;96477.16;;;21.81
50206;BMP280;36098;48.390;10.856;2023-02-02T01:31:19;96480.31;;;21.83
50206;BMP280;36098;48.390;10.856;2023-02-02T01:33:44;96468.16;;;21.77
50206;BMP280;36098;48.390;10.856;2023-02-02T01:36:11;96473.97;;;21.79
50206;BMP280;36098;48.390;10.856;2023-02-02T01:38:37;96459.84;;;21.85
50206;BMP280;36098;48.390;10.856;2023-02-02T01:41:02;96460.81;;;21.79
50206;BMP280;36098;48.390;10.856;2023-02-02T01:46:22;96457.09;;;21.75
50206;BMP280;36098;48.390;10.856;2023-02-02T01:51:34;96456.91;;;21.81
50206;BMP280;36098;48.390;10.856;2023-02-02T01:54:00;96450.56;;;21.77
50206;BMP280;36098;48.390;10.856;2023-02-02T01:56:35;96456.88;;;21.76
50206;BMP280;36098;48.390;10.856;2023-02-02T01:59:01;96458.66;;;21.71
50206;BMP280;36098;48.390;10.856;2023-02-02T02:01:26;96463.38;;;21.69
50206;BMP280;36098;48.390;10.856;2023-02-02T02:03:51;96455.47;;;21.64
50206;BMP280;36098;48.390;10.856;2023-02-02T02:06:17;96461.50;;;21.64
50206;BMP280;36098;48.390;10.856;2023-02-02T02:08:48;96466.53;;;21.66
50206;BMP280;36098;48.390;10.856;2023-02-02T02:11:16;96454.44;;;21.70
50206;BMP280;36098;48.390;10.856;2023-02-02T02:13:41;96453.94;;;21.73
50206;BMP280;36098;48.390;10.856;2023-02-02T02:21:45;96453.88;;;21.63
50206;BMP280;36098;48.390;10.856;2023-02-02T02:30:29;96457.56;;;21.62
50206;BMP280;36098;48.390;10.856;2023-02-02T02:33:01;96451.78;;;21.65
50206;BMP280;36098;48.390;10.856;2023-02-02T02:35:36;96446.53;;;21.65
50206;BMP280;36098;48.390;10.856;2023-02-02T02:38:09;96457.28;;;21.63
50206;BMP280;36098;48.390;10.856;2023-02-02T02:40:39;96450.22;;;21.64
50206;BMP280;36098;48.390;10.856;2023-02-02T02:43:10;96451.25;;;21.63
50206;BMP280;36098;48.390;10.856;2023-02-02T02:45:37;96454.84;;;21.57
50206;BMP280;36098;48.390;10.856;2023-02-02T02:48:03;96452.72;;;21.54
50206;BMP280;36098;48.390;10.856;2023-02-02T02:50:28;96456.38;;;21.53
50206;BMP280;36098;48.390;10.856;2023-02-02T02:53:13;96458.50;;;21.56
50206;BMP280;36098;48.390;10.856;2023-02-02T02:55:45;96454.31;;;21.60
50206;BMP280;36098;48.390;10.856;2023-02-02T02:58:14;96465.06;;;21.53
50206;BMP280;36098;48.390;10.856;2023-02-02T03:00:43;96453.75;;;21.53
50206;BMP280;36098;48.390;10.856;2023-02-02T03:03:15;96450.06;;;21.54
50206;BMP280;36098;48.390;10.856;2023-02-02T03:05:49;96443.50;;;21.51
50206;BMP280;36098;48.390;10.856;2023-02-02T03:08:22;96437.91;;;21.43
50206;BMP280;36098;48.390;10.856;2023-02-02T03:10:48;96442.38;;;21.42
50206;BMP280;36098;48.390;10.856;2023-02-02T03:13:14;96452.09;;;21.42
50206;BMP280;36098;48.390;10.856;2023-02-02T03:15:40;96447.13;;;21.45
50206;BMP280;36098;48.390;10.856;2023-02-02T03:18:05;96436.88;;;21.44
50206;BMP280;36098;48.390;10.856;2023-02-02T03:20:30;96441.31;;;21.43
50206;BMP280;36098;48.390;10.856;2023-02-02T03:22:55;96446.34;;;21.45
50206;BMP280;36098;48.390;10.856;2023-02-02T03:25:20;96431.66;;;21.49
50206;BMP280;36098;48.390;10.856;2023-02-02T03:27:47;96431.66;;;21.49
50206;BMP280;36098;48.390;10.856;2023-02-02T03:30:12;96432.69;;;21.48
50206;BMP280;36098;48.390;10.856;2023-02-02T03:32:38;96430.50;;;21.40
50206;BMP280;36098;48.390;10.856;2023-02-02T03:35:03;96426.91;;;21.46
50206;BMP280;36098;48.390;10.856;2023-02-02T03:37:29;96428.50;;;21.47
50206;BMP280;36098;48.390;10.856;2023-02-02T03:39:54;96427.94;;;21.45
50206;BMP280;36098;48.390;10.856;2023-02-02T03:42:19;96419.00;;;21.41
50206;BMP280;36098;48.390;10.856;2023-02-02T03:44:44;96427.88;;;21.40
50206;BMP280;36098;48.390;10.856;2023-02-02T03:47:09;96427.09;;;21.39
50206;BMP280;36098;48.390;10.856;2023-02-02T03:49:35;96421.84;;;21.39
50206;BMP280;36098;48.390;10.856;2023-02-02T03:52:00;96421.53;;;21.36
50206;BMP280;36098;48.390;10.856;2023-02-02T03:54:28;96439.69;;;21.38
50206;BMP280;36098;48.390;10.856;2023-02-02T03:56:53;96429.97;;;21.38
50206;BMP280;36098;48.390;10.856;2023-02-02T03:59:18;96431.56;;;21.39
50206;BMP280;36098;48.390;10.856;2023-02-02T04:01:43;96413.94;;;21.35
50206;BMP280;36098;48.390;10.856;2023-02-02T04:04:08;96423.34;;;21.31
50206;BMP280;36098;48.390;10.856;2023-02-02T04:06:33;96425.22;;;21.35
50206;BMP280;36098;48.390;10.856;2023-02-02T04:08:58;96439.41;;;21.34
50206;BMP280;36098;48.390;10.856;2023-02-02T04:11:24;96448.59;;;21.32
50206;BMP280;36098;48.390;10.856;2023-02-02T04:13:49;96433.03;;;21.25
50206;BMP280;36098;48.390;10.856;2023-02-02T04:16:14;96441.13;;;21.24
50206;BMP280;36098;48.390;10.856;2023-02-02T04:18:40;96446.41;;;21.24
50206;BMP280;36098;48.390;10.856;2023-02-02T04:21:05;96448.25;;;21.23
50206;BMP280;36098;48.390;10.856;2023-02-02T04:23:31;96438.22;;;21.20
50206;BMP280;36098;48.390;10.856;2023-02-02T04:25:57;96443.47;;;21.20
50206;BMP280;36098;48.390;10.856;2023-02-02T04:28:22;96452.16;;;21.21
50206;BMP280;36098;48.390;10.856;2023-02-02T04:30:48;96447.44;;;21.23
50206;BMP280;36098;48.390;10.856;2023-02-02T04:33:13;96446.16;;;21.25
50206;BMP280;36098;48.390;10.856;2023-02-02T04:35:38;96445.34;;;21.25
50206;BMP280;36098;48.390;10.856;2023-02-02T04:38:04;96450.59;;;21.25
50206;BMP280;36098;48.390;10.856;2023-02-02T04:40:29;96447.44;;;21.23
50206;BMP280;36098;48.390;10.856;2023-02-02T04:42:55;96470.31;;;21.22
50206;BMP280;36098;48.390;10.856;2023-02-02T04:45:21;96479.75;;;21.23
50206;BMP280;36098;48.390;10.856;2023-02-02T04:47:46;96477.06;;;21.18
50206;BMP280;36098;48.390;10.856;2023-02-02T04:50:11;96483.84;;;21.14
50206;BMP280;36098;48.390;10.856;2023-02-02T04:52:37;96493.81;;;21.12
50206;BMP280;36098;48.390;10.856;2023-02-02T04:55:02;96491.00;;;21.19
50206;BMP280;36098;48.390;10.856;2023-02-02T04:57:27;96492.03;;;21.18
50206;BMP280;36098;48.390;10.856;2023-02-02T04:59:52;96508.53;;;21.13
50206;BMP280;36098;48.390;10.856;2023-02-02T05:02:18;96497.25;;;21.13
50206;BMP280;36098;48.390;10.856;2023-02-02T05:04:43;96501.16;;;21.10
50206;BMP280;36098;48.390;10.856;2023-02-02T05:07:08;96490.66;;;21.10
50206;BMP280;36098;48.390;10.856;2023-02-02T05:09:33;96503.91;;;20.99
50206;BMP280;36098;48.390;10.856;2023-02-02T05:11:59;96502.06;;;20.78
50206;BMP280;36098;48.390;10.856;2023-02-02T05:14:24;96505.91;;;20.70
50206;BMP280;36098;48.390;10.856;2023-02-02T05:16:49;96503.88;;;20.77
50206;BMP280;36098;48.390;10.856;2023-02-02T05:19:14;96492.50;;;20.88
50206;BMP280;36098;48.390;10.856;2023-02-02T05:21:41;96485.59;;;21.04
50206;BMP280;36098;48.390;10.856;2023-02-02T05:24:06;96491.00;;;21.19
50206;BMP280;36098;48.390;10.856;2023-02-02T05:26:31;96492.25;;;21.38
50206;BMP280;36098;48.390;10.856;2023-02-02T05:28:56;96498.69;;;21.51
50206;BMP280;36098;48.390;10.856;2023-02-02T05:31:21;96493.03;;;21.64
50206;BMP280;36098;48.390;10.856;2023-02-02T05:33:47;96499.72;;;21.77
50206;BMP280;36098;48.390;10.856;2023-02-02T05:36:12;96492.69;;;21.87
50206;BMP280;36098;48.390;10.856;2023-02-02T05:38:37;96495.13;;;21.94
50206;BMP280;36098;48.390;10.856;2023-02-02T05:41:02;96486.25;;;22.00
50206;BMP280;36098;48.390;10.856;2023-02-02T05:43:28;96497.88;;;22.09
50206;BMP280;36098;48.390;10.856;2023-02-02T05:45:54;96497.88;;;22.14
50206;BMP280;36098;48.390;10.856;2023-02-02T05:48:19;96497.91;;;22.19
50206;BMP280;36098;48.390;10.856;2023-02-02T05:50:45;96502.44;;;22.28
50206;BMP280;36098;48.390;10.856;2023-02-02T05:53:13;96499.06;;;22.33
50206;BMP280;36098;48.390;10.856;2023-02-02T05:55:38;96514.66;;;22.39
50206;BMP280;36098;48.390;10.856;2023-02-02T05:58:03;96512.31;;;22.43
50206;BMP280;36098;48.390;10.856;2023-02-02T06:00:29;96518.69;;;22.52
50206;BMP280;36098;48.390;10.856;2023-02-02T06:02:54;96513.72;;;22.60
50206;BMP280;36098;48.390;10.856;2023-02-02T06:05:19;96508.25;;;22.67
50206;BMP280;36098;48.390;10.856;2023-02-02T06:07:44;96510.88;;;22.72
50206;BMP280;36098;48.390;10.856;2023-02-02T06:10:09;96515.69;;;22.80
50206;BMP280;36098;48.390;10.856;2023-02-02T06:12:35;96508.03;;;22.83
50206;BMP280;36098;48.390;10.856;2023-02-02T06:15:01;96508.63;;;22.90
50206;BMP280;36098;48.390;10.856;2023-02-02T06:17:26;96509.16;;;22.97
50206;BMP280;36098;48.390;10.856;2023-02-02T06:19:51;96521.56;;;23.02
50206;BMP280;36098;48.390;10.856;2023-02-02T06:22:16;96524.97;;;23.07
50206;BMP280;36098;48.390;10.856;2023-02-02T06:24:41;96509.16;;;23.07
50206;BMP280;36098;48.390;10.856;2023-02-02T06:27:07;96507.34;;;23.08
50206;BMP280;36098;48.390;10.856;2023-02-02T06:29:32;96508.94;;;23.09
50206;BMP280;36098;48.390;10.856;2023-02-02T06:31:57;96519.47;;;23.09
50206;BMP280;36098;48.390;10.856;2023-02-02T06:34:22;96525.53;;;23.09
50206;BMP280;36098;48.390;10.856;2023-02-02T06:36:48;96524.25;;;23.12
50206;BMP280;36098;48.390;10.856;2023-02-02T06:39:13;96527.41;;;23.14
50206;BMP280;36098;48.390;10.856;2023-02-02T06:41:38;96529.81;;;23.20
50206;BMP280;36098;48.390;10.856;2023-02-02T06:44:04;96524.28;;;23.22
50206;BMP280;36098;48.390;10.856;2023-02-02T06:46:29;96531.13;;;23.23
50206;BMP280;36098;48.390;10.856;2023-02-02T06:48:54;96536.41;;;23.27
50206;BMP280;36098;48.390;10.856;2023-02-02T06:51:20;96532.72;;;23.28
50206;BMP280;36098;48.390;10.856;2023-02-02T06:53:48;96522.47;;;23.32
50206;BMP280;36098;48.390;10.856;2023-02-02T06:56:13;96528.78;;;23.36
50206;BMP280;36098;48.390;10.856;2023-02-02T06:58:38;96533.53;;;23.39
50206;BMP280;36098;48.390;10.856;2023-02-02T07:01:04;96538.81;;;23.44
50206;BMP280;36098;48.390;10.856;2023-02-02T07:03:30;96535.41;;;23.48
50206;BMP280;36098;48.390;10.856;2023-02-02T07:05:55;96546.75;;;23.54
50206;BMP280;36098;48.390;10.856;2023-02-02T07:08:20;96546.25;;;23.57
50206;BMP280;36098;48.390;10.856;2023-02-02T07:10:45;96545.47;;;23.61
50206;BMP280;36098;48.390;10.856;2023-02-02T07:13:11;96547.03;;;23.67
50206;BMP280;36098;48.390;10.856;2023-02-02T07:15:39;96545.75;;;23.70
50206;BMP280;36098;48.390;10.856;2023-02-02T07:18:04;96541.25;;;23.70
50206;BMP280;36098;48.390;10.856;2023-02-02T07:20:30;96544.16;;;23.74
50206;BMP280;36098;48.390;10.856;2023-02-02T07:22:55;96543.09;;;23.75
50206;BMP280;36098;48.390;10.856;2023-02-02T07:25:20;96555.22;;;23.76
50206;BMP280;36098;48.390;10.856;2023-02-02T07:27:45;96549.16;;;23.75
50206;BMP280;36098;48.390;10.856;2023-02-02T07:30:12;96550.75;;;23.71
50206;BMP280;36098;48.390;10.856;2023-02-02T07:32:37;96550.22;;;23.69
50206;BMP280;36098;48.390;10.856;2023-02-02T07:35:02;96549.16;;;23.65
50206;BMP280;36098;48.390;10.856;2023-02-02T07:37:27;96546.28;;;23.67
50206;BMP280;36098;48.390;10.856;2023-02-02T07:39:52;96545.22;;;23.68
50206;BMP280;36098;48.390;10.856;2023-02-02T07:42:18;96545.47;;;23.71
50206;BMP280;36098;48.390;10.856;2023-02-02T07:44:43;96544.94;;;23.74
50206;BMP280;36098;48.390;10.856;2023-02-02T07:47:08;96547.31;;;23.81
50206;BMP280;36098;48.390;10.856;2023-02-02T07:49:33;96557.66;;;23.87
50206;BMP280;36098;48.390;10.856;2023-02-02T07:51:58;96545.78;;;23.95
50206;BMP280;36098;48.390;10.856;2023-02-02T07:54:23;96552.63;;;24.01
50206;BMP280;36098;48.390;10.856;2023-02-02T07:56:49;96556.06;;;24.06
50206;BMP280;36098;48.390;10.856;2023-02-02T07:59:14;96563.47;;;24.09
50206;BMP280;36098;48.390;10.856;2023-02-02T08:01:39;96560.81;;;24.09
50206;BMP280;36098;48.390;10.856;2023-02-02T08:04:04;96564.78;;;24.07
50206;BMP280;36098;48.390;10.856;2023-02-02T08:06:31;96574.00;;;24.04
50206;BMP280;36098;48.390;10.856;2023-02-02T08:08:56;96578.25;;;24.00
50206;BMP280;36098;48.390;10.856;2023-02-02T08:11:22;96572.69;;;23.97
50206;BMP280;36098;48.390;10.856;2023-02-02T08:13:48;96559.50;;;23.92
50206;BMP280;36098;48.390;10.856;2023-02-02T08:16:14;96582.44;;;23.86
50206;BMP280;36098;48.390;10.856;2023-02-02T08:18:39;96579.25;;;23.79
50206;BMP280;36098;48.390;10.856;2023-02-02T08:21:06;96564.97;;;23.75
50206;BMP280;36098;48.390;10.856;2023-02-02T08:23:32;96579.75;;;23.71
50206;BMP280;36098;48.390;10.856;2023-02-02T08:26:04;96588.47;;;23.67
50206;BMP280;36098;48.390;10.856;2023-02-02T08:28:29;96597.13;;;23.62
50206;BMP280;36098;48.390;10.856;2023-02-02T08:30:54;96587.59;;;23.56
50206;BMP280;36098;48.390;10.856;2023-02-02T08:33:19;96597.66;;;23.59
50206;BMP280;36098;48.390;10.856;2023-02-02T08:35:45;96598.44;;;23.60
50206;BMP280;36098;48.390;10.856;2023-02-02T08:38:11;96597.16;;;23.72
50206;BMP280;36098;48.390;10.856;2023-02-02T08:40:36;96602.41;;;23.62
50206;BMP280;36098;48.390;10.856;2023-02-02T08:43:01;96608.25;;;23.79
50206;BMP280;36098;48.390;10.856;2023-02-02T08:45:27;96605.59;;;23.69
50206;BMP280;36098;48.390;10.856;2023-02-02T08:47:52;96601.38;;;23.73
50206;BMP280;36098;48.390;10.856;2023-02-02T08:50:18;96603.53;;;23.86
50206;BMP280;36098;48.390;10.856;2023-02-02T08:52:43;96600.38;;;23.84
50206;BMP280;36098;48.390;10.856;2023-02-02T08:55:09;96616.22;;;23.99
50206;BMP280;36098;48.390;10.856;2023-02-02T08:57:34;96623.75;;;23.66
50206;BMP280;36098;48.390;10.856;2023-02-02T08:59:59;96618.47;;;23.51
50206;BMP280;36098;48.390;10.856;2023-02-02T09:02:24;96614.34;;;23.85
50206;BMP280;36098;48.390;10.856;2023-02-02T09:04:50;96627.28;;;23.91
50206;BMP280;36098;48.390;10.856;2023-02-02T09:07:15;96618.84;;;23.94
50206;BMP280;36098;48.390;10.856;2023-02-02T09:09:40;96623.34;;;23.99
50206;BMP280;36098;48.390;10.856;2023-02-02T09:12:05;96625.94;;;23.84
50206;BMP280;36098;48.390;10.856;2023-02-02T09:14:30;96623.34;;;23.89
50206;BMP280;36098;48.390;10.856;2023-02-02T09:16:56;96617.25;;;23.93
50206;BMP280;36098;48.390;10.856;2023-02-02T09:19:21;96627.78;;;23.78
50206;BMP280;36098;48.390;10.856;2023-02-02T09:21:48;96621.88;;;23.46
50206;BMP280;36098;48.390;10.856;2023-02-02T09:24:13;96626.75;;;23.18
50206;BMP280;36098;48.390;10.856;2023-02-02T09:26:38;96628.53;;;23.08
50206;BMP280;36098;48.390;10.856;2023-02-02T09:29:04;96628.75;;;23.06
50206;BMP280;36098;48.390;10.856;2023-02-02T09:31:31;96619.06;;;23.12
50206;BMP280;36098;48.390;10.856;2023-02-02T09:34:07;96628.09;;;23.21
50206;BMP280;36098;48.390;10.856;2023-02-02T09:36:32;96626.25;;;23.26
50206;BMP280;36098;48.390;10.856;2023-02-02T09:38:58;96622.59;;;23.32
50206;BMP280;36098;48.390;10.856;2023-02-02T09:49:10;96634.97;;;23.31
50206;BMP280;36098;48.390;10.856;2023-02-02T09:51:40;96645.00;;;23.29
50206;BMP280;36098;48.390;10.856;2023-02-02T09:54:16;96647.91;;;23.28
50206;BMP280;36098;48.390;10.856;2023-02-02T09:56:42;96646.81;;;23.24
50206;BMP280;36098;48.390;10.856;2023-02-02T09:59:11;96651.53;;;23.22
50206;BMP280;36098;48.390;10.856;2023-02-02T10:01:39;96653.41;;;23.22
50206;BMP280;36098;48.390;10.856;2023-02-02T10:06:51;96641.28;;;23.87
50206;BMP280;36098;48.390;10.856;2023-02-02T10:11:44;96640.75;;;24.25
50206;BMP280;36098;48.390;10.856;2023-02-02T10:14:17;96647.91;;;24.19
50206;BMP280;36098;48.390;10.856;2023-02-02T10:16:43;96656.34;;;24.16
50206;BMP280;36098;48.390;10.856;2023-02-02T10:19:10;96651.59;;;24.18
50206;BMP280;36098;48.390;10.856;2023-02-02T10:24:04;96658.72;;;24.08
50206;BMP280;36098;48.390;10.856;2023-02-02T10:26:38;96648.81;;;23.58
50206;BMP280;36098;48.390;10.856;2023-02-02T10:41:45;96654.50;;;23.35
50206;BMP280;36098;48.390;10.856;2023-02-02T10:44:15;96640.03;;;23.38
50206;BMP280;36098;48.390;10.856;2023-02-02T10:46:41;96656.06;;;23.36
50206;BMP280;36098;48.390;10.856;2023-02-02T10:51:43;96635.50;;;23.33
50206;BMP280;36098;48.390;10.856;2023-02-02T10:54:18;96649.75;;;23.32
50206;BMP280;36098;48.390;10.856;2023-02-02T10:56:45;96648.69;;;23.28
50206;BMP280;36098;48.390;10.856;2023-02-02T10:59:20;96646.81;;;23.24
50206;BMP280;36098;48.390;10.856;2023-02-02T11:01:48;96649.72;;;23.23
50206;BMP280;36098;48.390;10.856;2023-02-02T11:04:13;96644.97;;;23.20
50206;BMP280;36098;48.390;10.856;2023-02-02T11:06:57;96643.19;;;23.35
50206;BMP280;36098;48.390;10.856;2023-02-02T11:09:23;96653.97;;;23.33
50206;BMP280;36098;48.390;10.856;2023-02-02T11:11:50;96643.63;;;23.22
50206;BMP280;36098;48.390;10.856;2023-02-02T11:14:34;96661.84;;;23.24
50206;BMP280;36098;48.390;10.856;2023-02-02T11:17:02;96663.19;;;23.31
50206;BMP280;36098;48.390;10.856;2023-02-02T11:19:28;96661.34;;;23.31
50206;BMP280;36098;48.390;10.856;2023-02-02T11:21:57;96668.25;;;23.42
50206;BMP280;36098;48.390;10.856;2023-02-02T11:24:23;96671.34;;;23.34
50206;BMP280;36098;48.390;10.856;2023-02-02T11:26:52;96681.44;;;23.52
50206;BMP280;36098;48.390;10.856;2023-02-02T11:29:23;96656.81;;;23.88
50206;BMP280;36098;48.390;10.856;2023-02-02T11:31:49;96667.91;;;23.85
50206;BMP280;36098;48.390;10.856;2023-02-02T11:34:15;96669.00;;;23.99
50206;BMP280;36098;48.390;10.856;2023-02-02T11:36:53;96658.41;;;23.94
50206;BMP280;36098;48.390;10.856;2023-02-02T11:39:21;96644.72;;;24.02
50206;BMP280;36098;48.390;10.856;2023-02-02T11:41:46;96649.19;;;24.02
50206;BMP280;36098;48.390;10.856;2023-02-02T11:44:16;96666.88;;;23.96
50206;BMP280;36098;48.390;10.856;2023-02-02T11:46:43;96658.69;;;23.93
50206;BMP280;36098;48.390;10.856;2023-02-02T11:49:14;96654.94;;;23.84
50206;BMP280;36098;48.390;10.856;2023-02-02T11:51:41;96656.78;;;23.78
50206;BMP280;36098;48.390;10.856;2023-02-02T11:54:15;96649.88;;;23.62
50206;BMP280;36098;48.390;10.856;2023-02-02T11:56:41;96654.63;;;23.60
50206;BMP280;36098;48.390;10.856;2023-02-02T11:59:24;96652.81;;;23.71
50206;BMP280;36098;48.390;10.856;2023-02-02T12:01:50;96653.56;;;23.66
50206;BMP280;36098;48.390;10.856;2023-02-02T12:06:40;96649.28;;;23.45
50206;BMP280;36098;48.390;10.856;2023-02-02T12:09:10;96659.31;;;23.07
50206;BMP280;36098;48.390;10.856;2023-02-02T12:16:35;96653.22;;;22.97
50206;BMP280;36098;48.390;10.856;2023-02-02T12:19:08;96648.53;;;23.04
50206;BMP280;36098;48.390;10.856;2023-02-02T12:21:51;96648.53;;;23.09
50206;BMP280;36098;48.390;10.856;2023-02-02T12:24:34;96662.53;;;23.09
50206;BMP280;36098;48.390;10.856;2023-02-02T12:27:06;96660.66;;;23.10
50206;BMP280;36098;48.390;10.856;2023-02-02T12:30:21;96648.53;;;23.09
50206;BMP280;36098;48.390;10.856;2023-02-02T12:32:38;96650.19;;;23.15
50206;BMP280;36098;48.390;10.856;2023-02-02T12:40:28;96643.63;;;23.17
50206;BMP280;36098;48.390;10.856;2023-02-02T12:53:50;96662.97;;;23.42
50206;BMP280;36098;48.390;10.856;2023-02-02T12:56:44;96655.06;;;23.42
50206;BMP280;36098;48.390;10.856;2023-02-02T12:59:31;96663.97;;;23.31
50206;BMP280;36098;48.390;10.856;2023-02-02T13:09:11;96671.91;;;22.95
50206;BMP280;36098;48.390;10.856;2023-02-02T13:11:40;96669.78;;;22.92
50206;BMP280;36098;48.390;10.856;2023-02-02T13:14:14;96672.22;;;22.99
50206;BMP280;36098;48.390;10.856;2023-02-02T13:16:42;96680.16;;;23.09
50206;BMP280;36098;48.390;10.856;2023-02-02T13:19:13;96686.53;;;23.13
50206;BMP280;36098;48.390;10.856;2023-02-02T13:21:40;96689.47;;;23.16
50206;BMP280;36098;48.390;10.856;2023-02-02T13:24:06;96687.59;;;23.17
50206;BMP280;36098;48.390;10.856;2023-02-02T13:26:36;96679.69;;;23.17
50206;BMP280;36098;48.390;10.856;2023-02-02T13:29:10;96681.84;;;23.20
50206;BMP280;36098;48.390;10.856;2023-02-02T13:31:58;96686.31;;;23.19
50206;BMP280;36098;48.390;10.856;2023-02-02T13:34:26;96692.88;;;23.17
50206;BMP280;36098;48.390;10.856;2023-02-02T13:39:39;96702.09;;;23.14
50206;BMP280;36098;48.390;10.856;2023-02-02T13:42:08;96702.59;;;23.11
50206;BMP280;36098;48.390;10.856;2023-02-02T13:44:40;96707.16;;;23.21
50206;BMP280;36098;48.390;10.856;2023-02-02T13:47:10;96713.28;;;23.36
50206;BMP280;36098;48.390;10.856;2023-02-02T13:49:43;96703.81;;;23.40
50206;BMP280;36098;48.390;10.856;2023-02-02T13:52:23;96705.44;;;23.51
50206;BMP280;36098;48.390;10.856;2023-02-02T13:57:38;96710.97;;;23.54
50206;BMP280;36098;48.390;10.856;2023-02-02T14:02:45;96706.97;;;23.42
50206;BMP280;36098;48.390;10.856;2023-02-02T14:05:23;96721.81;;;23.53
50206;BMP280;36098;48.390;10.856;2023-02-02T14:07:52;96710.94;;;23.44
50206;BMP280;36098;48.390;10.856;2023-02-02T14:10:20;96711.91;;;23.28
50206;BMP280;36098;48.390;10.856;2023-02-02T14:12:46;96726.59;;;23.66
50206;BMP280;36098;48.390;10.856;2023-02-02T14:15:11;96711.69;;;23.91
50206;BMP280;36098;48.390;10.856;2023-02-02T14:20:03;96730.97;;;23.97
50206;BMP280;36098;48.390;10.856;2023-02-02T14:22:37;96723.81;;;23.92
50206;BMP280;36098;48.390;10.856;2023-02-02T14:25:37;96729.66;;;23.99
50206;BMP280;36098;48.390;10.856;2023-02-02T14:28:01;96728.03;;;23.93
50206;BMP280;36098;48.390;10.856;2023-02-02T14:30:30;96734.31;;;23.77
50206;BMP280;36098;48.390;10.856;2023-02-02T14:38:40;96747.75;;;23.76
50206;BMP280;36098;48.390;10.856;2023-02-02T14:43:47;96746.28;;;23.43
50206;BMP280;36098;48.390;10.856;2023-02-02T14:46:19;96745.56;;;23.17
50206;BMP280;36098;48.390;10.856;2023-02-02T14:53:46;96753.28;;;22.92
50206;BMP280;36098;48.390;10.856;2023-02-02T14:56:13;96750.63;;;22.92
50206;BMP280;36098;48.390;10.856;2023-02-02T15:06:26;96756.16;;;22.90
50206;BMP280;36098;48.390;10.856;2023-02-02T15:14:22;96756.44;;;22.94
50206;BMP280;36098;48.390;10.856;2023-02-02T15:16:49;96763.59;;;22.98
50206;BMP280;36098;48.390;10.856;2023-02-02T15:19:19;96780.25;;;23.09
50206;BMP280;36098;48.390;10.856;2023-02-02T15:21:46;96779.88;;;23.22
50206;BMP280;36098;48.390;10.856;2023-02-02T15:24:14;96774.00;;;23.51
50206;BMP280;36098;48.390;10.856;2023-02-02T15:26:42;96783.50;;;23.52
50206;BMP280;36098;48.390;10.856;2023-02-02T15:29:16;96785.16;;;23.22
50206;BMP280;36098;48.390;10.856;2023-02-02T15:34:18;96782.16;;;22.82
50206;BMP280;36098;48.390;10.856;2023-02-02T15:36:49;96782.06;;;23.03
50206;BMP280;36098;48.390;10.856;2023-02-02T15:41:53;96793.81;;;23.58
50206;BMP280;36098;48.390;10.856;2023-02-02T15:44:38;96807.81;;;23.23
50206;BMP280;36098;48.390;10.856;2023-02-02T15:47:05;96808.38;;;22.98
50206;BMP280;36098;48.390;10.856;2023-02-02T15:49:32;96812.78;;;22.93
50206;BMP280;36098;48.390;10.856;2023-02-02T15:51:59;96820.66;;;22.88
50206;BMP280;36098;48.390;10.856;2023-02-02T15:54:29;96822.56;;;22.92
50206;BMP280;36098;48.390;10.856;2023-02-02T15:56:56;96832.66;;;23.05
50206;BMP280;36098;48.390;10.856;2023-02-02T15:59:23;96830.28;;;23.04